Time;durP1;ratioP1;P1;durP2;ratioP2;P2;SDS_P1;SDS_P2;PMS_P1;PMS_P2;Temp;Humidity;BMP_temperature;BMP_pressure;BME280_temperature;BME280_humidity;BME280_pressure;Samples;Min_cycle;Max_cycle;Signal;HPM_P1;HPM_P2
2020/12/24 00:00:44;;;;;;;79.55;53.60;;;;;;;;;;4991986;28;20026;-50
2020/12/24 00:03:10;;;;;;;101.57;49.95;;;;;;;;;;4992403;28;20022;-50
2020/12/24 00:05:37;;;;;;;84.55;49.25;;;;;;;;;;4992724;28;20786;-50
2020/12/24 00:08:03;;;;;;;92.25;56.80;;;;;;;;;;4992635;28;20025;-50
2020/12/24 00:10:29;;;;;;;85.28;50.90;;;;;;;;;;4992623;28;20026;-50
2020/12/24 00:12:56;;;;;;;95.63;51.55;;;;;;;;;;4991891;28;20044;-51
2020/12/24 00:15:22;;;;;;;84.00;47.47;;;;;;;;;;4992417;28;20029;-50
2020/12/24 00:17:48;;;;;;;86.90;49.65;;;;;;;;;;4992503;28;20057;-51
2020/12/24 00:20:16;;;;;;;82.90;45.78;;;;;;;;;;4992431;28;20488;-50
2020/12/24 00:22:42;;;;;;;75.55;45.80;;;;;;;;;;4992401;28;20042;-50
2020/12/24 00:25:08;;;;;;;71.45;40.20;;;;;;;;;;4992261;28;20077;-51
2020/12/24 00:27:35;;;;;;;67.07;43.08;;;;;;;;;;4992398;28;20506;-50
2020/12/24 00:30:01;;;;;;;65.15;38.65;;;;;;;;;;4992414;28;20023;-51
2020/12/24 00:32:27;;;;;;;73.40;42.58;;;;;;;;;;4991874;28;20102;-51
2020/12/24 00:34:54;;;;;;;72.88;40.92;;;;;;;;;;4992271;28;20030;-51
2020/12/24 00:37:20;;;;;;;64.22;39.55;;;;;;;;;;4991837;28;20050;-50
2020/12/24 00:39:46;;;;;;;69.63;40.60;;;;;;;;;;4991546;28;20053;-50
2020/12/24 00:42:13;;;;;;;64.30;40.00;;;;;;;;;;4992132;28;20049;-51
2020/12/24 00:44:39;;;;;;;64.70;39.08;;;;;;;;;;4995937;28;20543;-51
2020/12/24 00:47:05;;;;;;;82.57;42.67;;;;;;;;;;4995976;28;20108;-50
2020/12/24 00:49:32;;;;;;;58.70;37.20;;;;;;;;;;4995994;28;20054;-50
2020/12/24 00:51:58;;;;;;;68.28;35.65;;;;;;;;;;4995994;28;20018;-50
2020/12/24 00:54:24;;;;;;;47.17;33.63;;;;;;;;;;4995891;28;20052;-51
2020/12/24 00:56:50;;;;;;;67.88;37.30;;;;;;;;;;4996025;28;20030;-51
2020/12/24 00:59:18;;;;;;;66.25;36.55;;;;;;;;;;4995842;28;20434;-50
2020/12/24 01:01:44;;;;;;;60.90;35.35;;;;;;;;;;4995844;28;20034;-51
2020/12/24 01:04:11;;;;;;;66.70;34.25;;;;;;;;;;4995797;28;20033;-51
2020/12/24 01:06:37;;;;;;;58.20;35.05;;;;;;;;;;4995795;28;20018;-50
2020/12/24 01:09:04;;;;;;;64.10;33.40;;;;;;;;;;4995691;28;20080;-50
2020/12/24 01:11:31;;;;;;;54.00;32.53;;;;;;;;;;4995499;28;20023;-50
2020/12/24 01:13:57;;;;;;;56.67;33.05;;;;;;;;;;4995569;28;20027;-50
2020/12/24 01:16:24;;;;;;;56.03;31.38;;;;;;;;;;4994931;28;20022;-50
2020/12/24 01:18:50;;;;;;;53.00;32.95;;;;;;;;;;4995672;28;20498;-50
2020/12/24 01:21:16;;;;;;;56.97;30.52;;;;;;;;;;4995399;28;20369;-50
2020/12/24 01:23:43;;;;;;;42.30;28.85;;;;;;;;;;4995431;28;20030;-50
2020/12/24 01:26:09;;;;;;;66.80;30.35;;;;;;;;;;4995378;28;20060;-50
2020/12/24 01:28:36;;;;;;;65.55;34.03;;;;;;;;;;4995401;28;20388;-50
2020/12/24 01:31:03;;;;;;;58.35;35.70;;;;;;;;;;4995342;28;20074;-50
2020/12/24 01:33:29;;;;;;;64.10;32.28;;;;;;;;;;4995278;28;20022;-49
2020/12/24 01:35:58;;;;;;;50.50;34.60;;;;;;;;;;4995331;28;20030;-50
2020/12/24 01:38:24;;;;;;;57.08;36.45;;;;;;;;;;4994784;28;20046;-50
2020/12/24 01:40:56;;;;;;;63.88;34.28;;;;;;;;;;4995100;28;20492;-50
2020/12/24 01:43:22;;;;;;;47.78;32.25;;;;;;;;;;4995139;28;20081;-50
2020/12/24 01:45:52;;;;;;;56.83;33.58;;;;;;;;;;4995000;28;20034;-50
2020/12/24 01:48:18;;;;;;;49.15;31.42;;;;;;;;;;4994923;28;20019;-50
2020/12/24 01:50:44;;;;;;;53.78;32.10;;;;;;;;;;4994962;28;20027;-48
2020/12/24 01:53:14;;;;;;;55.25;31.95;;;;;;;;;;4994657;28;20033;-47
2020/12/24 01:55:41;;;;;;;52.28;34.25;;;;;;;;;;4994010;28;20033;-48
2020/12/24 01:58:07;;;;;;;51.75;35.30;;;;;;;;;;4994762;28;20543;-47
2020/12/24 02:00:34;;;;;;;73.53;34.63;;;;;;;;;;4994726;28;20023;-48
2020/12/24 02:03:00;;;;;;;56.10;34.47;;;;;;;;;;4994754;28;20026;-48
2020/12/24 02:05:26;;;;;;;58.65;32.03;;;;;;;;;;4994559;28;20038;-48
2020/12/24 02:07:52;;;;;;;47.88;31.50;;;;;;;;;;4994543;28;20026;-48
2020/12/24 02:10:19;;;;;;;52.20;32.47;;;;;;;;;;4994475;28;20072;-48
2020/12/24 02:12:45;;;;;;;70.38;34.13;;;;;;;;;;4994383;28;20077;-48
2020/12/24 02:15:12;;;;;;;61.33;32.17;;;;;;;;;;4994562;28;20488;-48
2020/12/24 02:17:38;;;;;;;42.95;28.40;;;;;;;;;;4994375;28;20488;-48
2020/12/24 02:20:04;;;;;;;54.72;29.73;;;;;;;;;;4994371;28;20544;-48
2020/12/24 02:22:30;;;;;;;67.53;35.60;;;;;;;;;;4994344;28;20037;-49
2020/12/24 02:24:57;;;;;;;54.05;32.97;;;;;;;;;;4994209;28;20034;-49
2020/12/24 02:27:23;;;;;;;58.75;31.80;;;;;;;;;;4994174;28;20022;-49
2020/12/24 02:29:50;;;;;;;50.83;30.10;;;;;;;;;;4994356;28;20026;-49
2020/12/24 02:32:16;;;;;;;51.05;30.63;;;;;;;;;;4994389;28;20133;-49
2020/12/24 02:34:42;;;;;;;64.47;33.53;;;;;;;;;;4994189;28;20195;-49
2020/12/24 02:37:10;;;;;;;54.42;34.03;;;;;;;;;;4994670;28;20026;-49
2020/12/24 02:39:36;;;;;;;73.47;34.80;;;;;;;;;;4994015;28;20806;-49
2020/12/24 02:42:02;;;;;;;55.53;33.80;;;;;;;;;;4994004;28;20030;-49
2020/12/24 02:44:28;;;;;;;57.95;31.45;;;;;;;;;;4993943;28;20035;-49
2020/12/24 02:46:55;;;;;;;46.17;31.23;;;;;;;;;;4993870;28;20077;-49
2020/12/24 02:49:21;;;;;;;58.47;33.40;;;;;;;;;;4993810;28;20022;-49
2020/12/24 02:51:47;;;;;;;60.30;33.67;;;;;;;;;;4993741;28;20033;-49
2020/12/24 02:54:14;;;;;;;81.78;35.13;;;;;;;;;;4993632;28;20026;-49
2020/12/24 02:56:40;;;;;;;67.80;31.13;;;;;;;;;;4993672;28;20034;-49
2020/12/24 02:59:06;;;;;;;51.92;33.63;;;;;;;;;;4993614;28;20023;-49
2020/12/24 03:01:32;;;;;;;60.80;33.38;;;;;;;;;;4992540;28;20030;-51
2020/12/24 03:03:59;;;;;;;56.10;34.53;;;;;;;;;;4994006;28;20049;-51
2020/12/24 03:06:25;;;;;;;57.55;36.88;;;;;;;;;;4993872;28;20033;-51
2020/12/24 03:08:51;;;;;;;81.50;38.38;;;;;;;;;;4993371;28;20026;-50
2020/12/24 03:11:17;;;;;;;97.38;43.45;;;;;;;;;;4993354;28;20022;-51
2020/12/24 03:13:43;;;;;;;70.25;43.67;;;;;;;;;;4975836;28;20384;-51
2020/12/24 03:16:10;;;;;;;77.38;44.03;;;;;;;;;;4993306;28;20101;-53
2020/12/24 03:18:36;;;;;;;80.38;49.17;;;;;;;;;;4993200;28;20459;-50
2020/12/24 03:21:02;;;;;;;77.88;43.58;;;;;;;;;;4993140;28;20076;-49
2020/12/24 03:23:28;;;;;;;81.50;46.05;;;;;;;;;;4993072;28;20026;-50
2020/12/24 03:25:55;;;;;;;96.80;51.13;;;;;;;;;;4993183;28;20472;-50
2020/12/24 03:28:21;;;;;;;75.40;47.17;;;;;;;;;;4993163;28;20027;-50
2020/12/24 03:30:47;;;;;;;89.30;51.15;;;;;;;;;;4993385;28;20022;-50
2020/12/24 03:33:14;;;;;;;97.50;52.55;;;;;;;;;;4992911;28;20480;-51
2020/12/24 03:35:40;;;;;;;88.53;54.80;;;;;;;;;;4993007;28;20034;-51
2020/12/24 03:38:06;;;;;;;80.80;53.47;;;;;;;;;;4992666;28;20038;-50
2020/12/24 03:40:32;;;;;;;106.68;62.17;;;;;;;;;;4992836;28;20105;-50
2020/12/24 03:42:58;;;;;;;106.75;62.75;;;;;;;;;;4992817;28;20030;-51
2020/12/24 03:45:25;;;;;;;91.13;58.35;;;;;;;;;;4992561;28;20034;-51
2020/12/24 03:47:51;;;;;;;95.45;54.03;;;;;;;;;;4992614;28;20073;-50
2020/12/24 03:50:17;;;;;;;114.82;70.20;;;;;;;;;;4992646;28;20454;-48
2020/12/24 03:52:44;;;;;;;114.15;66.82;;;;;;;;;;4992594;28;20026;-49
2020/12/24 03:55:10;;;;;;;115.32;73.63;;;;;;;;;;4992614;28;20022;-49
2020/12/24 03:57:36;;;;;;;130.73;75.13;;;;;;;;;;4992605;28;20109;-49
2020/12/24 04:00:04;;;;;;;111.47;72.40;;;;;;;;;;4992572;28;20030;-49
2020/12/24 04:02:30;;;;;;;120.45;69.40;;;;;;;;;;4973930;28;20110;-51
2020/12/24 04:04:56;;;;;;;122.72;76.13;;;;;;;;;;4973008;28;20027;-51
2020/12/24 04:07:22;;;;;;;122.88;76.85;;;;;;;;;;4973063;28;20047;-50
2020/12/24 04:09:49;;;;;;;111.70;73.47;;;;;;;;;;4973128;28;20034;-50
2020/12/24 04:12:15;;;;;;;118.85;72.63;;;;;;;;;;4973045;28;20037;-51
2020/12/24 04:14:41;;;;;;;127.20;73.53;;;;;;;;;;4973116;28;20054;-50
2020/12/24 04:17:07;;;;;;;116.25;72.93;;;;;;;;;;4972668;28;20026;-51
2020/12/24 04:19:34;;;;;;;119.90;77.03;;;;;;;;;;4989536;28;20038;-51
2020/12/24 04:22:00;;;;;;;118.20;75.18;;;;;;;;;;4992076;28;20574;-50
2020/12/24 04:24:26;;;;;;;112.68;77.78;;;;;;;;;;4991958;28;20030;-48
2020/12/24 04:26:56;;;;;;;144.82;76.28;;;;;;;;;;4992212;28;20018;-49
2020/12/24 04:29:22;;;;;;;136.77;75.55;;;;;;;;;;4992145;28;20026;-50
2020/12/24 04:31:49;;;;;;;129.50;76.55;;;;;;;;;;4992153;28;20030;-50
2020/12/24 04:34:15;;;;;;;125.07;72.45;;;;;;;;;;4992289;28;20591;-50
2020/12/24 04:36:41;;;;;;;112.13;75.18;;;;;;;;;;4992319;28;20430;-50
2020/12/24 04:39:07;;;;;;;128.15;82.63;;;;;;;;;;4991686;28;20062;-51
2020/12/24 04:41:35;;;;;;;144.02;83.03;;;;;;;;;;4992206;28;20097;-50
2020/12/24 04:44:01;;;;;;;123.95;80.07;;;;;;;;;;4991941;28;20027;-50
2020/12/24 04:46:28;;;;;;;132.15;80.47;;;;;;;;;;4991950;28;20026;-50
2020/12/24 04:48:56;;;;;;;108.85;72.22;;;;;;;;;;4992005;28;20038;-49
2020/12/24 04:51:23;;;;;;;121.13;78.53;;;;;;;;;;4991998;28;20046;-51
2020/12/24 04:53:49;;;;;;;130.05;75.63;;;;;;;;;;4991951;28;20432;-50
2020/12/24 04:56:15;;;;;;;115.90;74.97;;;;;;;;;;4991895;28;20080;-50
2020/12/24 04:58:43;;;;;;;137.18;85.60;;;;;;;;;;4992052;28;20030;-52
2020/12/24 05:01:16;;;;;;;129.18;78.03;;;;;;;;;;4991618;28;20049;-54
2020/12/24 05:03:43;;;;;;;135.57;83.53;;;;;;;;;;4991790;28;20034;-52
2020/12/24 05:06:18;;;;;;;126.95;79.53;;;;;;;;;;4991930;28;20491;-51
2020/12/24 05:08:52;;;;;;;126.32;73.65;;;;;;;;;;4991929;28;20493;-51
2020/12/24 05:11:24;;;;;;;130.88;73.90;;;;;;;;;;4991609;28;20029;-48
2020/12/24 05:13:51;;;;;;;115.00;72.72;;;;;;;;;;4991742;28;20042;-49
2020/12/24 05:16:17;;;;;;;125.75;80.28;;;;;;;;;;4991787;28;20097;-49
2020/12/24 05:18:43;;;;;;;123.93;71.68;;;;;;;;;;4991689;28;20023;-52
2020/12/24 05:21:10;;;;;;;100.25;68.70;;;;;;;;;;4991686;28;20077;-49
2020/12/24 05:23:36;;;;;;;122.65;71.93;;;;;;;;;;4991779;28;20484;-50
2020/12/24 05:26:18;;;;;;;113.35;70.97;;;;;;;;;;4991764;28;20026;-51
2020/12/24 05:28:44;;;;;;;106.65;63.30;;;;;;;;;;4991951;28;20022;-50
2020/12/24 05:31:10;;;;;;;99.97;61.78;;;;;;;;;;4994593;28;20029;-49
2020/12/24 05:33:37;;;;;;;97.47;64.22;;;;;;;;;;4995187;28;20023;-48
2020/12/24 05:36:19;;;;;;;99.78;65.35;;;;;;;;;;4995089;28;20034;-48
2020/12/24 05:38:46;;;;;;;116.03;69.10;;;;;;;;;;4994971;28;20046;-50
2020/12/24 05:41:33;;;;;;;100.45;63.47;;;;;;;;;;4995166;28;20098;-51
2020/12/24 05:44:00;;;;;;;116.03;62.40;;;;;;;;;;4995014;28;20384;-52
2020/12/24 05:46:27;;;;;;;109.57;63.00;;;;;;;;;;4994769;28;20023;-51
2020/12/24 05:48:54;;;;;;;108.82;60.50;;;;;;;;;;4994965;28;20022;-51
2020/12/24 05:51:20;;;;;;;110.45;62.88;;;;;;;;;;4994579;28;20026;-51
2020/12/24 05:53:47;;;;;;;107.88;64.18;;;;;;;;;;4994755;28;20029;-51
2020/12/24 05:56:20;;;;;;;106.05;59.90;;;;;;;;;;4994763;28;20049;-51
2020/12/24 05:58:47;;;;;;;96.97;54.58;;;;;;;;;;4994646;28;20022;-51
2020/12/24 06:01:14;;;;;;;95.07;58.67;;;;;;;;;;4994380;28;20133;-50
2020/12/24 06:03:50;;;;;;;107.53;60.28;;;;;;;;;;4994647;28;20473;-50
2020/12/24 06:06:17;;;;;;;99.15;57.28;;;;;;;;;;4994527;28;20029;-50
2020/12/24 06:08:47;;;;;;;92.53;56.83;;;;;;;;;;4994710;28;20416;-50
2020/12/24 06:11:13;;;;;;;99.32;57.60;;;;;;;;;;4994573;28;20487;-50
2020/12/24 06:13:43;;;;;;;104.07;54.17;;;;;;;;;;4994534;28;20484;-50
2020/12/24 06:16:10;;;;;;;95.57;57.50;;;;;;;;;;4994336;28;20069;-50
2020/12/24 06:18:40;;;;;;;109.53;58.05;;;;;;;;;;4994491;28;20475;-50
2020/12/24 06:21:12;;;;;;;98.00;56.42;;;;;;;;;;4994262;28;20396;-50
2020/12/24 06:23:39;;;;;;;94.68;54.03;;;;;;;;;;4994268;28;20027;-51
2020/12/24 06:26:08;;;;;;;91.18;54.00;;;;;;;;;;4994193;28;20073;-50
2020/12/24 06:28:34;;;;;;;88.95;54.95;;;;;;;;;;4976820;28;20550;-50
2020/12/24 06:31:02;;;;;;;91.68;53.95;;;;;;;;;;4994201;28;20107;-52
2020/12/24 06:33:28;;;;;;;106.30;52.22;;;;;;;;;;4993815;28;20030;-51
2020/12/24 06:35:55;;;;;;;86.00;48.58;;;;;;;;;;4993874;28;20030;-51
2020/12/24 06:38:48;;;;;;;84.78;47.55;;;;;;;;;;4993759;28;20507;-52
2020/12/24 06:41:24;;;;;;;92.18;48.67;;;;;;;;;;4991728;28;20508;-52
2020/12/24 06:43:50;;;;;;;84.25;47.60;;;;;;;;;;4994000;28;20033;-51
2020/12/24 06:46:17;;;;;;;84.95;47.58;;;;;;;;;;4993774;28;20105;-51
2020/12/24 06:48:58;;;;;;;77.25;45.80;;;;;;;;;;4993674;28;20028;-49
2020/12/24 06:51:24;;;;;;;90.82;51.45;;;;;;;;;;4993760;28;20546;-50
2020/12/24 06:53:50;;;;;;;106.55;52.60;;;;;;;;;;4993870;28;20476;-51
2020/12/24 06:56:16;;;;;;;125.82;51.13;;;;;;;;;;4993824;28;20026;-51
2020/12/24 06:58:46;;;;;;;102.53;50.83;;;;;;;;;;4993636;28;20096;-55
2020/12/24 07:01:15;;;;;;;79.55;48.42;;;;;;;;;;4993554;28;20030;-52
2020/12/24 07:03:41;;;;;;;101.93;53.22;;;;;;;;;;4993509;28;20069;-52
2020/12/24 07:06:08;;;;;;;86.55;44.63;;;;;;;;;;4993305;28;20113;-52
2020/12/24 07:08:34;;;;;;;86.63;47.42;;;;;;;;;;4993305;28;20045;-52
2020/12/24 07:11:01;;;;;;;75.00;48.38;;;;;;;;;;4993399;28;20026;-50
2020/12/24 07:13:41;;;;;;;73.60;42.33;;;;;;;;;;4993167;28;20030;-50
2020/12/24 07:16:08;;;;;;;90.43;48.55;;;;;;;;;;4993274;28;20038;-49
2020/12/24 07:18:38;;;;;;;88.55;50.67;;;;;;;;;;4993288;28;20097;-51
2020/12/24 07:21:06;;;;;;;95.93;46.70;;;;;;;;;;4993252;28;20037;-51
2020/12/24 07:23:33;;;;;;;73.25;46.03;;;;;;;;;;4982188;28;20026;-51
2020/12/24 07:26:00;;;;;;;76.68;43.72;;;;;;;;;;4976349;28;20073;-52
2020/12/24 07:28:33;;;;;;;84.53;48.50;;;;;;;;;;4973612;28;20130;-52
2020/12/24 07:31:01;;;;;;;81.60;43.55;;;;;;;;;;4973276;28;20388;-51
2020/12/24 07:33:27;;;;;;;74.63;43.78;;;;;;;;;;4973637;28;20014;-50
2020/12/24 07:35:54;;;;;;;76.05;41.35;;;;;;;;;;4973598;28;20389;-49
2020/12/24 07:38:21;;;;;;;83.25;45.13;;;;;;;;;;4973464;28;20497;-49
2020/12/24 07:40:47;;;;;;;74.03;42.85;;;;;;;;;;4973281;28;20035;-51
2020/12/24 07:43:14;;;;;;;67.63;42.20;;;;;;;;;;4973484;28;20030;-51
2020/12/24 07:45:42;;;;;;;84.60;41.75;;;;;;;;;;4992049;28;20026;-49
2020/12/24 07:48:12;;;;;;;71.15;38.20;;;;;;;;;;4992651;28;20027;-51
2020/12/24 07:50:38;;;;;;;73.07;42.90;;;;;;;;;;4975434;28;20022;-50
2020/12/24 07:53:05;;;;;;;64.22;40.17;;;;;;;;;;4991782;28;20523;-52
2020/12/24 07:55:31;;;;;;;61.55;40.03;;;;;;;;;;4992574;28;20030;-51
2020/12/24 07:58:07;;;;;;;81.15;43.50;;;;;;;;;;4992599;28;20138;-52
2020/12/24 08:00:39;;;;;;;61.50;38.10;;;;;;;;;;4992386;28;20108;-53
2020/12/24 08:03:05;;;;;;;70.00;40.70;;;;;;;;;;4977784;28;20030;-52
2020/12/24 08:05:32;;;;;;;58.35;36.03;;;;;;;;;;4979200;28;20026;-50
2020/12/24 08:07:58;;;;;;;62.03;39.05;;;;;;;;;;4992358;28;20061;-52
2020/12/24 08:10:24;;;;;;;65.63;38.58;;;;;;;;;;4975007;28;20022;-52
2020/12/24 08:12:50;;;;;;;55.72;34.55;;;;;;;;;;4992273;28;20384;-51
2020/12/24 08:15:18;;;;;;;56.30;30.80;;;;;;;;;;4992294;28;20077;-52
2020/12/24 08:17:48;;;;;;;66.03;39.33;;;;;;;;;;4992249;28;20458;-49
2020/12/24 08:20:15;;;;;;;62.78;35.20;;;;;;;;;;4973237;28;20830;-51
2020/12/24 08:22:44;;;;;;;65.53;33.03;;;;;;;;;;4973120;28;20050;-53
2020/12/24 08:25:12;;;;;;;63.10;34.60;;;;;;;;;;4972883;28;20106;-51
2020/12/24 08:27:38;;;;;;;57.30;33.42;;;;;;;;;;4972839;28;20026;-53
2020/12/24 08:30:06;;;;;;;61.83;33.58;;;;;;;;;;4972882;28;20027;-48
2020/12/24 08:32:33;;;;;;;65.53;34.40;;;;;;;;;;4991029;28;20057;-49
2020/12/24 08:35:13;;;;;;;59.17;32.65;;;;;;;;;;4992121;28;20026;-50
2020/12/24 08:37:39;;;;;;;63.85;32.70;;;;;;;;;;4992212;28;20097;-52
2020/12/24 08:40:18;;;;;;;65.13;32.15;;;;;;;;;;4991975;28;20046;-50
2020/12/24 08:42:47;;;;;;;53.25;30.60;;;;;;;;;;4991949;28;20077;-49
2020/12/24 08:45:14;;;;;;;53.67;30.33;;;;;;;;;;4991875;28;20034;-50
2020/12/24 08:47:40;;;;;;;50.42;29.90;;;;;;;;;;4992108;28;20018;-50
2020/12/24 08:50:07;;;;;;;57.55;33.53;;;;;;;;;;4991933;28;20476;-50
2020/12/24 08:52:43;;;;;;;53.95;32.70;;;;;;;;;;4991969;28;20589;-49
2020/12/24 08:55:10;;;;;;;51.53;30.73;;;;;;;;;;4991873;28;20030;-50
2020/12/24 08:57:37;;;;;;;58.80;33.75;;;;;;;;;;4991804;28;20030;-52
2020/12/24 09:00:07;;;;;;;57.80;34.03;;;;;;;;;;4991725;28;20030;-52
2020/12/24 09:02:35;;;;;;;62.20;31.83;;;;;;;;;;4991810;28;20368;-50
2020/12/24 09:05:03;;;;;;;54.53;28.05;;;;;;;;;;4994394;28;20535;-49
2020/12/24 09:07:37;;;;;;;58.95;30.77;;;;;;;;;;4995697;28;20034;-50
2020/12/24 09:10:07;;;;;;;63.72;32.97;;;;;;;;;;4995529;28;20025;-50
2020/12/24 09:12:34;;;;;;;51.30;29.30;;;;;;;;;;4995565;28;20022;-51
2020/12/24 09:15:08;;;;;;;53.95;30.73;;;;;;;;;;4995530;28;20080;-51
2020/12/24 09:17:34;;;;;;;63.25;32.38;;;;;;;;;;4995247;28;20101;-52
2020/12/24 09:20:05;;;;;;;51.15;32.13;;;;;;;;;;4995584;28;20503;-53
2020/12/24 09:22:31;;;;;;;;;;;;;;;;;;4995770;28;20031;-51
2020/12/24 09:24:58;;;;;;;67.38;30.58;;;;;;;;;;4995111;28;19910;-54
2020/12/24 09:27:24;;;;;;;52.95;31.00;;;;;;;;;;4995187;28;20152;-52
2020/12/24 09:29:50;;;;;;;69.75;29.45;;;;;;;;;;4980371;28;20046;-54
2020/12/24 09:32:17;;;;;;;43.53;27.42;;;;;;;;;;4974887;28;20023;-51
2020/12/24 09:34:44;;;;;;;51.97;33.67;;;;;;;;;;4975417;28;20130;-51
2020/12/24 09:37:11;;;;;;;47.28;30.25;;;;;;;;;;4975632;28;20019;-51
2020/12/24 09:39:37;;;;;;;55.92;31.67;;;;;;;;;;4975177;28;20521;-51
2020/12/24 09:42:04;;;;;;;60.08;29.90;;;;;;;;;;4975613;28;20098;-49
2020/12/24 09:44:31;;;;;;;54.42;30.38;;;;;;;;;;4975626;28;20489;-52
2020/12/24 09:46:57;;;;;;;57.28;35.55;;;;;;;;;;4975113;28;20031;-51
2020/12/24 09:49:23;;;;;;;48.38;28.55;;;;;;;;;;4975333;28;20022;-49
2020/12/24 09:51:50;;;;;;;55.10;29.73;;;;;;;;;;4975405;28;20432;-50
2020/12/24 09:54:16;;;;;;;54.72;31.10;;;;;;;;;;4975291;28;20019;-49
2020/12/24 09:56:42;;;;;;;49.03;31.05;;;;;;;;;;4975400;28;20029;-51
2020/12/24 09:59:08;;;;;;;51.35;29.67;;;;;;;;;;4974994;28;20432;-50
2020/12/24 10:01:35;;;;;;;55.72;32.17;;;;;;;;;;4986121;28;20027;-50
2020/12/24 10:04:01;;;;;;;54.42;25.27;;;;;;;;;;4994585;28;20369;-51
2020/12/24 10:06:29;;;;;;;61.90;31.30;;;;;;;;;;4994400;28;20023;-50
2020/12/24 10:08:56;;;;;;;55.35;28.55;;;;;;;;;;4994477;28;20476;-52
2020/12/24 10:11:22;;;;;;;40.55;27.45;;;;;;;;;;4994412;28;20101;-52
2020/12/24 10:13:48;;;;;;;49.72;30.33;;;;;;;;;;4994404;28;20025;-49
2020/12/24 10:16:55;;;;;;;47.45;25.48;;;;;;;;;;5109692;27;20430;-52
2020/12/24 10:19:21;;;;;;;49.63;29.30;;;;;;;;;;5109447;28;20103;-51
2020/12/24 10:21:47;;;;;;;44.47;27.98;;;;;;;;;;5109500;28;20031;-53
2020/12/24 10:24:13;;;;;;;48.72;28.00;;;;;;;;;;5109530;28;20050;-51
2020/12/24 10:26:40;;;;;;;52.28;28.90;;;;;;;;;;5109535;28;20485;-52
2020/12/24 10:29:06;;;;;;;55.20;29.88;;;;;;;;;;5109139;28;20028;-51
2020/12/24 10:31:32;;;;;;;48.78;29.20;;;;;;;;;;5109318;28;20048;-52
2020/12/24 10:33:58;;;;;;;44.50;28.33;;;;;;;;;;5109230;28;20605;-53
2020/12/24 10:36:25;;;;;;;54.00;27.15;;;;;;;;;;5109109;28;20049;-53
2020/12/24 10:38:52;;;;;;;49.05;28.05;;;;;;;;;;5109466;28;20020;-51
2020/12/24 10:41:18;;;;;;;64.28;27.48;;;;;;;;;;5109248;28;20020;-52
2020/12/24 10:43:45;;;;;;;55.70;29.25;;;;;;;;;;5109352;28;20055;-52
2020/12/24 10:46:15;;;;;;;49.47;26.42;;;;;;;;;;5109242;28;20782;-51
2020/12/24 10:48:42;;;;;;;39.40;24.60;;;;;;;;;;5109018;28;20027;-52
2020/12/24 10:51:08;;;;;;;52.05;28.00;;;;;;;;;;5108940;28;20103;-54
2020/12/24 10:53:35;;;;;;;51.33;27.65;;;;;;;;;;5108953;28;20028;-54
2020/12/24 10:56:01;;;;;;;57.40;28.52;;;;;;;;;;5108641;28;20020;-52
2020/12/24 10:58:28;;;;;;;44.35;26.98;;;;;;;;;;5108979;28;20080;-52
2020/12/24 11:00:54;;;;;;;49.58;28.50;;;;;;;;;;5108795;28;20090;-54
2020/12/24 11:03:24;;;;;;;63.38;27.70;;;;;;;;;;5108658;28;20020;-53
2020/12/24 11:05:50;;;;;;;49.30;25.10;;;;;;;;;;5108616;28;20431;-52
2020/12/24 11:08:16;;;;;;;54.38;26.80;;;;;;;;;;5108669;28;20381;-53
2020/12/24 11:10:43;;;;;;;46.63;26.90;;;;;;;;;;5108574;28;20451;-52
2020/12/24 11:13:09;;;;;;;46.47;24.52;;;;;;;;;;5108597;28;20027;-52
2020/12/24 11:15:35;;;;;;;51.17;25.05;;;;;;;;;;5108364;28;20099;-52
2020/12/24 11:18:01;;;;;;;44.33;26.17;;;;;;;;;;5108298;28;20024;-52
2020/12/24 11:20:27;;;;;;;47.53;28.88;;;;;;;;;;5108393;28;20027;-51
2020/12/24 11:22:54;;;;;;;45.80;26.55;;;;;;;;;;5108431;28;20039;-52
2020/12/24 11:25:20;;;;;;;50.95;28.95;;;;;;;;;;5108186;28;20028;-54
2020/12/24 11:27:46;;;;;;;55.60;32.38;;;;;;;;;;5097609;28;20127;-53
2020/12/24 11:30:12;;;;;;;62.42;38.20;;;;;;;;;;5094684;28;20019;-51
2020/12/24 11:32:39;;;;;;;68.82;39.20;;;;;;;;;;5094360;28;20477;-51
2020/12/24 11:35:05;;;;;;;86.90;46.75;;;;;;;;;;5094312;28;20448;-52
2020/12/24 11:37:31;;;;;;;90.78;48.72;;;;;;;;;;5094366;28;20027;-51
2020/12/24 11:39:57;;;;;;;100.00;56.10;;;;;;;;;;5094404;28;20028;-53
2020/12/24 11:42:24;;;;;;;101.68;55.13;;;;;;;;;;5094421;28;20016;-52
2020/12/24 11:44:50;;;;;;;98.43;61.00;;;;;;;;;;5094162;28;20032;-52
2020/12/24 11:47:16;;;;;;;92.97;54.97;;;;;;;;;;5094096;28;20024;-51
2020/12/24 11:49:43;;;;;;;100.55;60.70;;;;;;;;;;5094169;28;20117;-51
2020/12/24 11:52:09;;;;;;;116.63;69.10;;;;;;;;;;5093199;28;20028;-50
2020/12/24 11:54:35;;;;;;;134.88;79.90;;;;;;;;;;5093817;28;20099;-50
2020/12/24 11:59:23;;;;;;;160.65;88.40;;;;;;;;;;5068799;28;20437;-51
2020/12/24 12:01:50;;;;;;;164.40;90.25;;;;;;;;;;5068948;28;20377;-52
2020/12/24 12:04:17;;;;;;;166.88;93.50;;;;;;;;;;5068416;28;20017;-51
2020/12/24 12:06:44;;;;;;;153.23;93.88;;;;;;;;;;5066282;28;20021;-52
2020/12/24 12:09:10;;;;;;;163.18;95.78;;;;;;;;;;5069643;28;20041;-52
2020/12/24 12:11:36;;;;;;;167.48;92.38;;;;;;;;;;5068920;28;20032;-54
2020/12/24 12:14:03;;;;;;;151.15;89.43;;;;;;;;;;5068911;28;20052;-51
2020/12/24 12:16:29;;;;;;;169.38;91.85;;;;;;;;;;5067890;28;20024;-50
2020/12/24 12:18:55;;;;;;;153.75;87.75;;;;;;;;;;5068457;28;20021;-50
2020/12/24 12:21:21;;;;;;;152.35;89.15;;;;;;;;;;5068508;28;20101;-51
2020/12/24 12:23:48;;;;;;;141.35;84.68;;;;;;;;;;5068612;28;20021;-52
2020/12/24 12:26:17;;;;;;;150.00;86.30;;;;;;;;;;5068605;28;20466;-51
2020/12/24 12:28:47;;;;;;;134.38;79.80;;;;;;;;;;5068871;28;20033;-49
2020/12/24 12:31:26;;;;;;;171.85;89.18;;;;;;;;;;5068340;28;20116;-49
2020/12/24 12:33:53;;;;;;;144.48;88.82;;;;;;;;;;5068260;28;20108;-49
2020/12/24 12:36:19;;;;;;;150.48;87.80;;;;;;;;;;5068366;28;20025;-50
2020/12/24 12:38:47;;;;;;;160.98;95.35;;;;;;;;;;5068132;28;20039;-51
2020/12/24 12:41:14;;;;;;;151.45;90.20;;;;;;;;;;5068295;28;20025;-50
2020/12/24 12:43:41;;;;;;;126.68;79.32;;;;;;;;;;5065428;28;20051;-51
2020/12/24 12:46:07;;;;;;;145.45;91.07;;;;;;;;;;5048099;28;20018;-52
2020/12/24 12:48:34;;;;;;;156.10;95.80;;;;;;;;;;5066075;28;20029;-51
2020/12/24 12:51:00;;;;;;;181.90;102.32;;;;;;;;;;5067046;28;20078;-51
2020/12/24 12:53:26;;;;;;;191.82;105.50;;;;;;;;;;5053946;28;20032;-50
2020/12/24 12:55:53;;;;;;;178.98;106.20;;;;;;;;;;5059532;28;20055;-50
2020/12/24 12:58:19;;;;;;;180.70;103.82;;;;;;;;;;5067302;28;20088;-49
2020/12/24 13:00:46;;;;;;;176.13;105.53;;;;;;;;;;5067662;28;20094;-50
2020/12/24 13:03:12;;;;;;;193.40;109.20;;;;;;;;;;5067793;28;20020;-51
2020/12/24 13:05:39;;;;;;;189.73;120.70;;;;;;;;;;5067638;28;20055;-50
2020/12/24 13:08:05;;;;;;;186.55;115.20;;;;;;;;;;5067468;28;20470;-50
2020/12/24 13:10:32;;;;;;;180.38;117.43;;;;;;;;;;5055877;28;20032;-51
2020/12/24 13:12:58;;;;;;;196.48;116.28;;;;;;;;;;5054683;28;20154;-51
2020/12/24 13:15:24;;;;;;;194.57;118.00;;;;;;;;;;5054226;28;20029;-50
2020/12/24 13:17:51;;;;;;;208.07;126.13;;;;;;;;;;5053162;28;20025;-50
2020/12/24 13:20:17;;;;;;;170.30;104.50;;;;;;;;;;5054177;28;20047;-51
2020/12/24 13:22:45;;;;;;;192.02;107.82;;;;;;;;;;5054240;28;20447;-49
2020/12/24 13:25:12;;;;;;;178.43;103.40;;;;;;;;;;5054074;28;20039;-50
2020/12/24 13:27:38;;;;;;;188.80;113.53;;;;;;;;;;5054054;28;20402;-50
2020/12/24 13:30:04;;;;;;;174.98;106.97;;;;;;;;;;5054142;28;20035;-50
2020/12/24 13:32:31;;;;;;;196.55;113.97;;;;;;;;;;5052924;28;20565;-50
2020/12/24 13:34:57;;;;;;;195.68;112.82;;;;;;;;;;5054261;28;20043;-51
2020/12/24 13:37:23;;;;;;;209.07;120.82;;;;;;;;;;5053788;28;20112;-49
2020/12/24 13:39:50;;;;;;;206.07;122.07;;;;;;;;;;5053802;28;20478;-50
2020/12/24 13:42:16;;;;;;;208.02;117.95;;;;;;;;;;5053653;28;20435;-50
2020/12/24 13:44:42;;;;;;;218.75;123.53;;;;;;;;;;5053721;28;20033;-49
2020/12/24 13:47:09;;;;;;;183.70;122.45;;;;;;;;;;5053626;28;20020;-50
2020/12/24 13:49:35;;;;;;;197.25;119.20;;;;;;;;;;5052400;28;20021;-50
2020/12/24 13:52:01;;;;;;;197.63;122.15;;;;;;;;;;5053652;28;20032;-50
2020/12/24 13:54:28;;;;;;;203.70;125.80;;;;;;;;;;5052128;28;20108;-49
2020/12/24 13:56:54;;;;;;;220.40;135.13;;;;;;;;;;5053418;28;20036;-50
2020/12/24 13:59:21;;;;;;;223.40;123.30;;;;;;;;;;5053295;28;20120;-50
2020/12/24 14:01:52;;;;;;;210.95;132.48;;;;;;;;;;5053447;28;20032;-50
2020/12/24 14:04:18;;;;;;;233.88;134.45;;;;;;;;;;5051956;28;20024;-50
2020/12/24 14:06:45;;;;;;;231.50;136.00;;;;;;;;;;5053407;28;20025;-51
2020/12/24 14:09:12;;;;;;;237.43;143.50;;;;;;;;;;5053225;28;20036;-51
2020/12/24 14:11:38;;;;;;;209.05;136.27;;;;;;;;;;5053258;28;20025;-51
2020/12/24 14:14:04;;;;;;;235.40;142.30;;;;;;;;;;5053043;28;20029;-51